sensor_id;sensor_type;location;lat;lon;timestamp;temperature;humidity
50606;DHT22;36557;53.572;10.170;2022-12-11T00:01:11;-2.40;99.90
50606;DHT22;36557;53.572;10.170;2022-12-11T00:03:37;-2.40;99.90
50606;DHT22;36557;53.572;10.170;2022-12-11T00:06:08;-2.50;99.90
50606;DHT22;36557;53.572;10.170;2022-12-11T00:08:34;-2.50;99.90
50606;DHT22;36557;53.572;10.170;2022-12-11T00:11:00;-2.50;99.90
50606;DHT22;36557;53.572;10.170;2022-12-11T00:13:26;-2.50;99.90
50606;DHT22;36557;53.572;10.170;2022-12-11T00:15:52;-2.60;99.90
50606;DHT22;36557;53.572;10.170;2022-12-11T00:18:17;-2.60;99.90
50606;DHT22;36557;53.572;10.170;2022-12-11T00:20:43;-2.60;99.90
50606;DHT22;36557;53.572;10.170;2022-12-11T00:23:09;-2.60;99.90
50606;DHT22;36557;53.572;10.170;2022-12-11T00:25:43;-2.60;99.90
50606;DHT22;36557;53.572;10.170;2022-12-11T00:28:10;-2.50;99.90
50606;DHT22;36557;53.572;10.170;2022-12-11T00:30:42;-2.60;99.90
50606;DHT22;36557;53.572;10.170;2022-12-11T00:33:08;-2.60;99.90
50606;DHT22;36557;53.572;10.170;2022-12-11T00:35:43;-2.60;99.90
50606;DHT22;36557;53.572;10.170;2022-12-11T00:38:14;-2.60;99.90
50606;DHT22;36557;53.572;10.170;2022-12-11T00:40:40;-2.50;99.90
50606;DHT22;36557;53.572;10.170;2022-12-11T00:43:05;-2.40;99.90
50606;DHT22;36557;53.572;10.170;2022-12-11T00:45:39;-2.50;99.90
50606;DHT22;36557;53.572;10.170;2022-12-11T00:48:05;-2.50;99.90
50606;DHT22;36557;53.572;10.170;2022-12-11T00:50:31;-2.50;99.90
50606;DHT22;36557;53.572;10.170;2022-12-11T00:52:57;-2.40;99.90
50606;DHT22;36557;53.572;10.170;2022-12-11T00:55:22;-2.50;99.90
50606;DHT22;36557;53.572;10.170;2022-12-11T00:57:52;-2.50;99.90
50606;DHT22;36557;53.572;10.170;2022-12-11T01:00:18;-2.60;99.90
50606;DHT22;36557;53.572;10.170;2022-12-11T01:02:44;-2.60;99.90
50606;DHT22;36557;53.572;10.170;2022-12-11T01:05:10;-2.60;99.90
50606;DHT22;36557;53.572;10.170;2022-12-11T01:07:36;-2.60;99.90
50606;DHT22;36557;53.572;10.170;2022-12-11T01:10:03;-2.60;99.90
50606;DHT22;36557;53.572;10.170;2022-12-11T01:12:47;-2.50;99.90
50606;DHT22;36557;53.572;10.170;2022-12-11T01:15:13;-2.70;99.90
50606;DHT22;36557;53.572;10.170;2022-12-11T01:17:39;-2.70;99.90
50606;DHT22;36557;53.572;10.170;2022-12-11T01:20:05;-2.60;99.90
50606;DHT22;36557;53.572;10.170;2022-12-11T01:22:31;-2.60;99.90
50606;DHT22;36557;53.572;10.170;2022-12-11T01:24:57;-2.60;99.90
50606;DHT22;36557;53.572;10.170;2022-12-11T01:27:23;-2.60;99.90
50606;DHT22;36557;53.572;10.170;2022-12-11T01:29:49;-2.70;99.90
50606;DHT22;36557;53.572;10.170;2022-12-11T01:32:15;-2.70;99.90
50606;DHT22;36557;53.572;10.170;2022-12-11T01:34:41;-2.70;99.90
50606;DHT22;36557;53.572;10.170;2022-12-11T01:37:07;-2.70;99.90
50606;DHT22;36557;53.572;10.170;2022-12-11T01:39:32;-2.70;99.90
50606;DHT22;36557;53.572;10.170;2022-12-11T01:41:59;-2.60;99.90
50606;DHT22;36557;53.572;10.170;2022-12-11T01:46:55;-2.60;99.90
50606;DHT22;36557;53.572;10.170;2022-12-11T01:49:22;-2.60;99.90
50606;DHT22;36557;53.572;10.170;2022-12-11T01:52:00;-2.60;99.90
50606;DHT22;36557;53.572;10.170;2022-12-11T01:54:28;-2.60;99.90
50606;DHT22;36557;53.572;10.170;2022-12-11T01:57:00;-2.60;99.90
50606;DHT22;36557;53.572;10.170;2022-12-11T01:59:30;-2.70;99.90
50606;DHT22;36557;53.572;10.170;2022-12-11T02:02:01;-2.80;99.90
50606;DHT22;36557;53.572;10.170;2022-12-11T02:04:29;-2.80;99.90
50606;DHT22;36557;53.572;10.170;2022-12-11T02:06:55;-2.80;99.90
50606;DHT22;36557;53.572;10.170;2022-12-11T02:09:30;-2.80;99.90
50606;DHT22;36557;53.572;10.170;2022-12-11T02:28:42;-2.90;99.90
50606;DHT22;36557;53.572;10.170;2022-12-11T02:34:45;-2.80;99.90
50606;DHT22;36557;53.572;10.170;2022-12-11T02:37:17;-2.70;99.90
50606;DHT22;36557;53.572;10.170;2022-12-11T02:39:44;-2.70;99.90
50606;DHT22;36557;53.572;10.170;2022-12-11T02:42:11;-2.80;99.90
50606;DHT22;36557;53.572;10.170;2022-12-11T02:44:39;-2.70;99.90
50606;DHT22;36557;53.572;10.170;2022-12-11T02:47:12;-2.80;99.90
50606;DHT22;36557;53.572;10.170;2022-12-11T02:49:42;-2.70;99.90
50606;DHT22;36557;53.572;10.170;2022-12-11T02:52:11;-2.70;99.90
50606;DHT22;36557;53.572;10.170;2022-12-11T02:54:38;-2.70;99.90
50606;DHT22;36557;53.572;10.170;2022-12-11T02:57:10;-2.70;99.90
50606;DHT22;36557;53.572;10.170;2022-12-11T02:59:39;-2.80;99.90
50606;DHT22;36557;53.572;10.170;2022-12-11T03:02:06;-2.90;99.90
50606;DHT22;36557;53.572;10.170;2022-12-11T03:04:33;-2.80;99.90
50606;DHT22;36557;53.572;10.170;2022-12-11T03:07:17;-2.70;99.90
50606;DHT22;36557;53.572;10.170;2022-12-11T03:09:45;-2.70;99.90
50606;DHT22;36557;53.572;10.170;2022-12-11T03:12:14;-2.70;99.90
50606;DHT22;36557;53.572;10.170;2022-12-11T03:14:42;-2.80;99.90
50606;DHT22;36557;53.572;10.170;2022-12-11T03:17:26;-2.80;99.90
50606;DHT22;36557;53.572;10.170;2022-12-11T03:25:32;-2.80;99.90
50606;DHT22;36557;53.572;10.170;2022-12-11T03:28:10;-2.70;99.90
50606;DHT22;36557;53.572;10.170;2022-12-11T03:30:38;-2.70;99.90
50606;DHT22;36557;53.572;10.170;2022-12-11T03:33:22;-2.70;99.90
50606;DHT22;36557;53.572;10.170;2022-12-11T03:35:55;-2.80;99.90
50606;DHT22;36557;53.572;10.170;2022-12-11T03:38:35;-2.70;99.90
50606;DHT22;36557;53.572;10.170;2022-12-11T03:41:02;-2.60;99.90
50606;DHT22;36557;53.572;10.170;2022-12-11T03:43:29;-2.70;99.90
50606;DHT22;36557;53.572;10.170;2022-12-11T03:45:57;-2.80;99.90
50606;DHT22;36557;53.572;10.170;2022-12-11T03:48:27;-2.80;99.90
50606;DHT22;36557;53.572;10.170;2022-12-11T03:50:56;-2.80;99.90
50606;DHT22;36557;53.572;10.170;2022-12-11T03:53:22;-2.70;99.90
50606;DHT22;36557;53.572;10.170;2022-12-11T03:55:50;-2.70;99.90
50606;DHT22;36557;53.572;10.170;2022-12-11T03:58:16;-2.90;99.90
50606;DHT22;36557;53.572;10.170;2022-12-11T04:00:42;-2.90;99.90
50606;DHT22;36557;53.572;10.170;2022-12-11T04:03:08;-2.80;99.90
50606;DHT22;36557;53.572;10.170;2022-12-11T04:05:49;-2.80;99.90
50606;DHT22;36557;53.572;10.170;2022-12-11T04:08:16;-2.80;99.90
50606;DHT22;36557;53.572;10.170;2022-12-11T04:10:42;-2.80;99.90
50606;DHT22;36557;53.572;10.170;2022-12-11T04:13:08;-2.80;99.90
50606;DHT22;36557;53.572;10.170;2022-12-11T04:15:35;-2.80;99.90
50606;DHT22;36557;53.572;10.170;2022-12-11T04:18:01;-2.80;99.90
50606;DHT22;36557;53.572;10.170;2022-12-11T04:21:05;-2.80;99.90
50606;DHT22;36557;53.572;10.170;2022-12-11T04:23:49;-2.80;99.90
50606;DHT22;36557;53.572;10.170;2022-12-11T04:26:33;-2.80;99.90
50606;DHT22;36557;53.572;10.170;2022-12-11T04:28:59;-2.80;99.90
50606;DHT22;36557;53.572;10.170;2022-12-11T04:31:24;-2.80;99.90
50606;DHT22;36557;53.572;10.170;2022-12-11T04:33:50;-2.80;99.90
50606;DHT22;36557;53.572;10.170;2022-12-11T04:36:16;-2.80;99.90
50606;DHT22;36557;53.572;10.170;2022-12-11T04:38:42;-2.80;99.90
50606;DHT22;36557;53.572;10.170;2022-12-11T04:41:10;-2.80;99.90
50606;DHT22;36557;53.572;10.170;2022-12-11T04:43:37;-2.80;99.90
50606;DHT22;36557;53.572;10.170;2022-12-11T04:46:06;-2.70;99.90
50606;DHT22;36557;53.572;10.170;2022-12-11T04:48:33;-2.70;99.90
50606;DHT22;36557;53.572;10.170;2022-12-11T04:50:59;-2.80;99.90
50606;DHT22;36557;53.572;10.170;2022-12-11T04:53:25;-2.70;99.90
50606;DHT22;36557;53.572;10.170;2022-12-11T04:55:51;-2.70;99.90
50606;DHT22;36557;53.572;10.170;2022-12-11T04:58:17;-2.70;99.90
50606;DHT22;36557;53.572;10.170;2022-12-11T05:00:43;-2.70;99.90
50606;DHT22;36557;53.572;10.170;2022-12-11T05:03:08;-2.70;99.90
50606;DHT22;36557;53.572;10.170;2022-12-11T05:05:34;-2.60;99.90
50606;DHT22;36557;53.572;10.170;2022-12-11T05:08:00;-2.60;99.90
50606;DHT22;36557;53.572;10.170;2022-12-11T05:10:26;-2.60;99.90
50606;DHT22;36557;53.572;10.170;2022-12-11T05:12:51;-2.60;99.90
50606;DHT22;36557;53.572;10.170;2022-12-11T05:15:17;-2.60;99.90
50606;DHT22;36557;53.572;10.170;2022-12-11T05:17:43;-2.60;99.90
50606;DHT22;36557;53.572;10.170;2022-12-11T05:20:09;-2.60;99.90
50606;DHT22;36557;53.572;10.170;2022-12-11T05:22:35;-2.60;99.90
50606;DHT22;36557;53.572;10.170;2022-12-11T05:25:01;-2.60;99.90
50606;DHT22;36557;53.572;10.170;2022-12-11T05:27:27;-2.70;99.90
50606;DHT22;36557;53.572;10.170;2022-12-11T05:29:53;-2.70;99.90
50606;DHT22;36557;53.572;10.170;2022-12-11T05:32:19;-2.70;99.90
50606;DHT22;36557;53.572;10.170;2022-12-11T05:34:44;-2.80;99.90
50606;DHT22;36557;53.572;10.170;2022-12-11T05:37:10;-2.80;99.90
50606;DHT22;36557;53.572;10.170;2022-12-11T05:39:37;-2.90;99.90
50606;DHT22;36557;53.572;10.170;2022-12-11T05:42:03;-3.00;99.90
50606;DHT22;36557;53.572;10.170;2022-12-11T05:44:28;-3.00;99.90
50606;DHT22;36557;53.572;10.170;2022-12-11T05:46:54;-3.00;99.90
50606;DHT22;36557;53.572;10.170;2022-12-11T05:49:20;-3.10;99.90
50606;DHT22;36557;53.572;10.170;2022-12-11T05:51:46;-3.10;99.90
50606;DHT22;36557;53.572;10.170;2022-12-11T05:54:12;-3.20;99.90
50606;DHT22;36557;53.572;10.170;2022-12-11T05:56:38;-3.20;99.90
50606;DHT22;36557;53.572;10.170;2022-12-11T05:59:05;-3.30;99.90
50606;DHT22;36557;53.572;10.170;2022-12-11T06:01:41;-3.30;99.90
50606;DHT22;36557;53.572;10.170;2022-12-11T06:04:09;-3.30;99.90
50606;DHT22;36557;53.572;10.170;2022-12-11T06:06:37;-3.40;99.90
50606;DHT22;36557;53.572;10.170;2022-12-11T06:09:04;-3.40;99.90
50606;DHT22;36557;53.572;10.170;2022-12-11T06:11:31;-3.50;99.90
50606;DHT22;36557;53.572;10.170;2022-12-11T06:13:57;-3.60;99.90
50606;DHT22;36557;53.572;10.170;2022-12-11T06:16:23;-3.60;99.90
50606;DHT22;36557;53.572;10.170;2022-12-11T06:18:49;-3.70;99.90
50606;DHT22;36557;53.572;10.170;2022-12-11T06:21:18;-3.80;99.90
50606;DHT22;36557;53.572;10.170;2022-12-11T06:23:45;-3.80;99.90
50606;DHT22;36557;53.572;10.170;2022-12-11T06:26:12;-3.90;99.90
50606;DHT22;36557;53.572;10.170;2022-12-11T06:28:38;-4.00;99.90
50606;DHT22;36557;53.572;10.170;2022-12-11T06:31:04;-4.10;99.90
50606;DHT22;36557;53.572;10.170;2022-12-11T06:33:30;-4.10;99.90
50606;DHT22;36557;53.572;10.170;2022-12-11T06:36:04;-4.10;99.90
50606;DHT22;36557;53.572;10.170;2022-12-11T06:38:30;-4.10;99.90
50606;DHT22;36557;53.572;10.170;2022-12-11T06:40:58;-4.10;99.90
50606;DHT22;36557;53.572;10.170;2022-12-11T06:43:24;-4.20;99.90
50606;DHT22;36557;53.572;10.170;2022-12-11T06:45:51;-4.30;99.90
50606;DHT22;36557;53.572;10.170;2022-12-11T06:48:17;-4.30;99.90
50606;DHT22;36557;53.572;10.170;2022-12-11T06:50:43;-4.30;99.90
50606;DHT22;36557;53.572;10.170;2022-12-11T06:53:10;-4.30;99.90
50606;DHT22;36557;53.572;10.170;2022-12-11T06:55:36;-4.30;99.90
50606;DHT22;36557;53.572;10.170;2022-12-11T06:58:02;-4.40;99.90
50606;DHT22;36557;53.572;10.170;2022-12-11T07:00:28;-4.40;99.90
50606;DHT22;36557;53.572;10.170;2022-12-11T07:02:54;-4.50;99.90
50606;DHT22;36557;53.572;10.170;2022-12-11T07:05:20;-4.50;99.90
50606;DHT22;36557;53.572;10.170;2022-12-11T07:07:45;-4.50;99.90
50606;DHT22;36557;53.572;10.170;2022-12-11T07:10:11;-4.60;99.90
50606;DHT22;36557;53.572;10.170;2022-12-11T07:12:37;-4.60;99.90
50606;DHT22;36557;53.572;10.170;2022-12-11T07:15:04;-4.60;99.90
50606;DHT22;36557;53.572;10.170;2022-12-11T07:17:30;-4.60;99.90
50606;DHT22;36557;53.572;10.170;2022-12-11T07:19:56;-4.70;99.90
50606;DHT22;36557;53.572;10.170;2022-12-11T07:22:21;-4.70;99.90
50606;DHT22;36557;53.572;10.170;2022-12-11T07:24:47;-4.70;99.90
50606;DHT22;36557;53.572;10.170;2022-12-11T07:27:13;-4.70;99.90
50606;DHT22;36557;53.572;10.170;2022-12-11T07:29:38;-4.70;99.90
50606;DHT22;36557;53.572;10.170;2022-12-11T07:32:04;-4.70;99.90
50606;DHT22;36557;53.572;10.170;2022-12-11T07:34:30;-4.70;99.90
50606;DHT22;36557;53.572;10.170;2022-12-11T07:36:56;-4.70;99.90
50606;DHT22;36557;53.572;10.170;2022-12-11T07:39:22;-4.70;99.90
50606;DHT22;36557;53.572;10.170;2022-12-11T07:41:48;-4.70;99.90
50606;DHT22;36557;53.572;10.170;2022-12-11T07:44:14;-4.70;99.90
50606;DHT22;36557;53.572;10.170;2022-12-11T07:46:39;-4.60;99.90
50606;DHT22;36557;53.572;10.170;2022-12-11T07:49:05;-4.50;99.90
50606;DHT22;36557;53.572;10.170;2022-12-11T07:51:33;-4.50;99.90
50606;DHT22;36557;53.572;10.170;2022-12-11T07:54:20;-4.60;99.90
50606;DHT22;36557;53.572;10.170;2022-12-11T07:56:46;-4.60;99.90
50606;DHT22;36557;53.572;10.170;2022-12-11T07:59:13;-4.50;99.90
50606;DHT22;36557;53.572;10.170;2022-12-11T08:01:39;-4.50;99.90
50606;DHT22;36557;53.572;10.170;2022-12-11T08:04:08;-4.50;99.90
50606;DHT22;36557;53.572;10.170;2022-12-11T08:06:37;-4.50;99.90
50606;DHT22;36557;53.572;10.170;2022-12-11T08:09:05;-4.50;99.90
50606;DHT22;36557;53.572;10.170;2022-12-11T08:11:32;-4.50;99.90
50606;DHT22;36557;53.572;10.170;2022-12-11T08:13:58;-4.50;99.90
50606;DHT22;36557;53.572;10.170;2022-12-11T08:16:25;-4.60;99.90
50606;DHT22;36557;53.572;10.170;2022-12-11T08:18:51;-4.60;99.90
50606;DHT22;36557;53.572;10.170;2022-12-11T08:21:19;-4.60;99.90
50606;DHT22;36557;53.572;10.170;2022-12-11T08:23:45;-4.60;99.90
50606;DHT22;36557;53.572;10.170;2022-12-11T08:26:14;-4.60;99.90
50606;DHT22;36557;53.572;10.170;2022-12-11T08:28:40;-4.60;99.90
50606;DHT22;36557;53.572;10.170;2022-12-11T08:31:08;-4.50;99.90
50606;DHT22;36557;53.572;10.170;2022-12-11T08:33:35;-4.50;99.90
50606;DHT22;36557;53.572;10.170;2022-12-11T08:36:03;-4.50;99.90
50606;DHT22;36557;53.572;10.170;2022-12-11T08:38:29;-4.40;99.90
50606;DHT22;36557;53.572;10.170;2022-12-11T08:40:56;-4.40;99.90
50606;DHT22;36557;53.572;10.170;2022-12-11T08:43:21;-4.30;99.90
50606;DHT22;36557;53.572;10.170;2022-12-11T08:45:47;-4.30;99.90
50606;DHT22;36557;53.572;10.170;2022-12-11T08:48:14;-4.30;99.90
50606;DHT22;36557;53.572;10.170;2022-12-11T08:50:39;-4.30;99.90
50606;DHT22;36557;53.572;10.170;2022-12-11T08:53:05;-4.30;99.90
50606;DHT22;36557;53.572;10.170;2022-12-11T08:55:31;-4.30;99.90
50606;DHT22;36557;53.572;10.170;2022-12-11T08:57:57;-4.20;99.90
50606;DHT22;36557;53.572;10.170;2022-12-11T09:00:23;-4.20;99.90
50606;DHT22;36557;53.572;10.170;2022-12-11T09:02:49;-4.10;99.90
50606;DHT22;36557;53.572;10.170;2022-12-11T09:05:15;-4.10;99.90
50606;DHT22;36557;53.572;10.170;2022-12-11T09:07:40;-4.10;99.90
50606;DHT22;36557;53.572;10.170;2022-12-11T09:10:07;-4.10;99.90
50606;DHT22;36557;53.572;10.170;2022-12-11T09:12:33;-4.00;99.90
50606;DHT22;36557;53.572;10.170;2022-12-11T09:14:59;-4.00;99.90
50606;DHT22;36557;53.572;10.170;2022-12-11T09:17:25;-4.00;99.90
50606;DHT22;36557;53.572;10.170;2022-12-11T09:19:50;-3.90;99.90
50606;DHT22;36557;53.572;10.170;2022-12-11T09:22:16;-3.90;99.90
50606;DHT22;36557;53.572;10.170;2022-12-11T09:24:42;-3.80;99.90
50606;DHT22;36557;53.572;10.170;2022-12-11T09:27:08;-3.80;99.90
50606;DHT22;36557;53.572;10.170;2022-12-11T09:29:33;-3.70;99.90
50606;DHT22;36557;53.572;10.170;2022-12-11T09:31:59;-3.70;99.90
50606;DHT22;36557;53.572;10.170;2022-12-11T09:34:25;-3.60;99.90
50606;DHT22;36557;53.572;10.170;2022-12-11T09:36:51;-3.60;99.90
50606;DHT22;36557;53.572;10.170;2022-12-11T09:39:17;-3.50;99.90
50606;DHT22;36557;53.572;10.170;2022-12-11T09:44:50;-3.50;99.90
50606;DHT22;36557;53.572;10.170;2022-12-11T09:55:37;-3.30;99.90
50606;DHT22;36557;53.572;10.170;2022-12-11T09:58:44;-3.30;99.90
50606;DHT22;36557;53.572;10.170;2022-12-11T10:01:21;-3.20;99.90
50606;DHT22;36557;53.572;10.170;2022-12-11T10:07:13;-3.10;99.90
50606;DHT22;36557;53.572;10.170;2022-12-11T10:12:41;-3.00;99.90
50606;DHT22;36557;53.572;10.170;2022-12-11T10:15:38;-2.90;99.90
50606;DHT22;36557;53.572;10.170;2022-12-11T10:18:10;-2.90;99.90
50606;DHT22;36557;53.572;10.170;2022-12-11T10:20:37;-2.80;99.90
50606;DHT22;36557;53.572;10.170;2022-12-11T10:23:14;-2.90;99.90
50606;DHT22;36557;53.572;10.170;2022-12-11T10:25:49;-2.80;99.90
50606;DHT22;36557;53.572;10.170;2022-12-11T10:28:18;-2.80;99.90
50606;DHT22;36557;53.572;10.170;2022-12-11T10:30:48;-2.80;99.90
50606;DHT22;36557;53.572;10.170;2022-12-11T10:34:22;-2.80;99.90
50606;DHT22;36557;53.572;10.170;2022-12-11T10:36:34;-2.70;99.90
50606;DHT22;36557;53.572;10.170;2022-12-11T10:39:01;-2.70;99.90
50606;DHT22;36557;53.572;10.170;2022-12-11T10:41:39;-2.70;99.90
50606;DHT22;36557;53.572;10.170;2022-12-11T10:44:28;-2.70;99.90
50606;DHT22;36557;53.572;10.170;2022-12-11T10:47:05;-2.60;99.90
50606;DHT22;36557;53.572;10.170;2022-12-11T10:49:34;-2.60;99.90
50606;DHT22;36557;53.572;10.170;2022-12-11T10:52:00;-2.50;99.90
50606;DHT22;36557;53.572;10.170;2022-12-11T10:54:34;-2.50;99.90
50606;DHT22;36557;53.572;10.170;2022-12-11T10:57:04;-2.50;99.90
50606;DHT22;36557;53.572;10.170;2022-12-11T11:01:58;-2.40;99.90
50606;DHT22;36557;53.572;10.170;2022-12-11T11:04:37;-2.40;99.90
50606;DHT22;36557;53.572;10.170;2022-12-11T11:07:15;-2.40;99.90
50606;DHT22;36557;53.572;10.170;2022-12-11T11:09:43;-2.30;99.90
50606;DHT22;36557;53.572;10.170;2022-12-11T11:12:25;-2.30;99.90
50606;DHT22;36557;53.572;10.170;2022-12-11T11:15:04;-2.30;99.90
50606;DHT22;36557;53.572;10.170;2022-12-11T11:17:31;-2.30;99.90
50606;DHT22;36557;53.572;10.170;2022-12-11T11:20:10;-2.20;99.90
50606;DHT22;36557;53.572;10.170;2022-12-11T11:22:46;-2.20;99.90
50606;DHT22;36557;53.572;10.170;2022-12-11T11:25:19;-2.20;99.90
50606;DHT22;36557;53.572;10.170;2022-12-11T11:30:41;-2.20;99.90
50606;DHT22;36557;53.572;10.170;2022-12-11T11:33:20;-2.20;99.90
50606;DHT22;36557;53.572;10.170;2022-12-11T11:35:55;-2.10;99.90
50606;DHT22;36557;53.572;10.170;2022-12-11T11:38:27;-2.20;99.90
50606;DHT22;36557;53.572;10.170;2022-12-11T11:41:17;-2.20;99.90
50606;DHT22;36557;53.572;10.170;2022-12-11T11:43:51;-2.20;99.90
50606;DHT22;36557;53.572;10.170;2022-12-11T11:57:14;-2.10;99.90
50606;DHT22;36557;53.572;10.170;2022-12-11T11:59:49;-2.10;99.90
50606;DHT22;36557;53.572;10.170;2022-12-11T12:02:19;-2.10;99.90
50606;DHT22;36557;53.572;10.170;2022-12-11T12:04:45;-2.10;99.90
50606;DHT22;36557;53.572;10.170;2022-12-11T12:19:25;-1.90;99.90
50606;DHT22;36557;53.572;10.170;2022-12-11T12:21:54;-1.90;99.90
50606;DHT22;36557;53.572;10.170;2022-12-11T12:30:07;-1.80;99.90
50606;DHT22;36557;53.572;10.170;2022-12-11T12:33:13;-1.70;99.90
50606;DHT22;36557;53.572;10.170;2022-12-11T12:35:53;-1.70;99.90
50606;DHT22;36557;53.572;10.170;2022-12-11T12:38:35;-1.50;99.90
50606;DHT22;36557;53.572;10.170;2022-12-11T12:49:40;-1.30;99.90
50606;DHT22;36557;53.572;10.170;2022-12-11T12:52:20;-1.40;99.90
50606;DHT22;36557;53.572;10.170;2022-12-11T12:54:51;-1.30;99.90
50606;DHT22;36557;53.572;10.170;2022-12-11T12:57:37;-1.20;99.90
50606;DHT22;36557;53.572;10.170;2022-12-11T13:00:05;-1.20;99.90
50606;DHT22;36557;53.572;10.170;2022-12-11T13:02:32;-1.20;99.90
50606;DHT22;36557;53.572;10.170;2022-12-11T13:05:17;-1.20;99.90
50606;DHT22;36557;53.572;10.170;2022-12-11T13:07:58;-1.20;99.90
50606;DHT22;36557;53.572;10.170;2022-12-11T13:10:29;-1.20;99.90
50606;DHT22;36557;53.572;10.170;2022-12-11T13:12:56;-1.10;99.90
50606;DHT22;36557;53.572;10.170;2022-12-11T13:15:41;-1.10;99.90
50606;DHT22;36557;53.572;10.170;2022-12-11T13:18:35;-1.10;99.90
50606;DHT22;36557;53.572;10.170;2022-12-11T13:21:02;-1.10;99.90
50606;DHT22;36557;53.572;10.170;2022-12-11T13:23:33;-1.10;99.90
50606;DHT22;36557;53.572;10.170;2022-12-11T13:26:03;-1.10;99.90
50606;DHT22;36557;53.572;10.170;2022-12-11T13:28:33;-1.10;99.90
50606;DHT22;36557;53.572;10.170;2022-12-11T13:33:47;-1.10;99.90
50606;DHT22;36557;53.572;10.170;2022-12-11T13:36:31;-1.10;99.90
50606;DHT22;36557;53.572;10.170;2022-12-11T13:39:07;-1.10;99.90
50606;DHT22;36557;53.572;10.170;2022-12-11T13:41:36;-1.20;99.90
50606;DHT22;36557;53.572;10.170;2022-12-11T13:44:03;-1.30;99.90
50606;DHT22;36557;53.572;10.170;2022-12-11T13:46:33;-1.40;99.90
50606;DHT22;36557;53.572;10.170;2022-12-11T13:49:05;-1.50;99.90
50606;DHT22;36557;53.572;10.170;2022-12-11T13:51:32;-1.60;99.90
50606;DHT22;36557;53.572;10.170;2022-12-11T13:54:16;-1.60;99.90
50606;DHT22;36557;53.572;10.170;2022-12-11T13:59:40;-1.70;99.90
50606;DHT22;36557;53.572;10.170;2022-12-11T14:02:18;-1.80;99.90
50606;DHT22;36557;53.572;10.170;2022-12-11T14:04:47;-1.80;99.90
50606;DHT22;36557;53.572;10.170;2022-12-11T14:07:16;-1.90;99.90
50606;DHT22;36557;53.572;10.170;2022-12-11T14:09:45;-1.90;99.90
50606;DHT22;36557;53.572;10.170;2022-12-11T14:12:19;-1.90;99.90
50606;DHT22;36557;53.572;10.170;2022-12-11T14:14:48;-1.90;99.90
50606;DHT22;36557;53.572;10.170;2022-12-11T14:17:26;-1.80;99.90
50606;DHT22;36557;53.572;10.170;2022-12-11T14:19:53;-1.80;99.90
50606;DHT22;36557;53.572;10.170;2022-12-11T14:22:23;-1.80;99.90
50606;DHT22;36557;53.572;10.170;2022-12-11T14:24:58;-1.80;99.90
50606;DHT22;36557;53.572;10.170;2022-12-11T14:27:26;-1.80;99.90
50606;DHT22;36557;53.572;10.170;2022-12-11T14:29:52;-1.80;99.90
50606;DHT22;36557;53.572;10.170;2022-12-11T14:32:31;-1.80;99.90
50606;DHT22;36557;53.572;10.170;2022-12-11T14:35:02;-1.70;99.90
50606;DHT22;36557;53.572;10.170;2022-12-11T14:37:29;-1.70;99.90
50606;DHT22;36557;53.572;10.170;2022-12-11T14:40:21;-1.70;99.90
50606;DHT22;36557;53.572;10.170;2022-12-11T14:42:49;-1.70;99.90
50606;DHT22;36557;53.572;10.170;2022-12-11T14:45:37;-1.70;99.90
50606;DHT22;36557;53.572;10.170;2022-12-11T14:48:11;-1.70;99.90
50606;DHT22;36557;53.572;10.170;2022-12-11T14:50:48;-1.70;99.90
50606;DHT22;36557;53.572;10.170;2022-12-11T14:53:45;-1.80;99.90
50606;DHT22;36557;53.572;10.170;2022-12-11T14:56:22;-1.70;99.90
50606;DHT22;36557;53.572;10.170;2022-12-11T14:59:02;-1.80;99.90
50606;DHT22;36557;53.572;10.170;2022-12-11T15:01:31;-1.80;99.90
50606;DHT22;36557;53.572;10.170;2022-12-11T15:04:22;-1.80;99.90
50606;DHT22;36557;53.572;10.170;2022-12-11T15:06:51;-1.80;99.90
50606;DHT22;36557;53.572;10.170;2022-12-11T15:11:43;-1.90;99.90
50606;DHT22;36557;53.572;10.170;2022-12-11T15:14:11;-1.80;99.90
50606;DHT22;36557;53.572;10.170;2022-12-11T15:16:39;-1.80;99.90
50606;DHT22;36557;53.572;10.170;2022-12-11T15:19:06;-1.80;99.90
50606;DHT22;36557;53.572;10.170;2022-12-11T15:21:40;-1.80;99.90
50606;DHT22;36557;53.572;10.170;2022-12-11T15:24:25;-1.80;99.90
50606;DHT22;36557;53.572;10.170;2022-12-11T15:26:56;-1.90;99.90
50606;DHT22;36557;53.572;10.170;2022-12-11T15:29:46;-1.90;99.90
50606;DHT22;36557;53.572;10.170;2022-12-11T15:34:52;-1.90;99.90
50606;DHT22;36557;53.572;10.170;2022-12-11T15:37:30;-1.90;99.90
50606;DHT22;36557;53.572;10.170;2022-12-11T15:39:59;-1.90;99.90
50606;DHT22;36557;53.572;10.170;2022-12-11T15:42:37;-1.90;99.90
50606;DHT22;36557;53.572;10.170;2022-12-11T15:45:06;-1.90;99.90
50606;DHT22;36557;53.572;10.170;2022-12-11T15:47:32;-1.90;99.90
50606;DHT22;36557;53.572;10.170;2022-12-11T15:50:11;-1.80;99.90
50606;DHT22;36557;53.572;10.170;2022-12-11T15:52:39;-1.90;99.90
50606;DHT22;36557;53.572;10.170;2022-12-11T15:55:05;-1.90;99.90
50606;DHT22;36557;53.572;10.170;2022-12-11T15:57:31;-1.90;99.90
50606;DHT22;36557;53.572;10.170;2022-12-11T15:59:57;-1.90;99.90
50606;DHT22;36557;53.572;10.170;2022-12-11T16:02:23;-1.80;99.90
50606;DHT22;36557;53.572;10.170;2022-12-11T16:04:50;-1.90;99.90
50606;DHT22;36557;53.572;10.170;2022-12-11T16:07:21;-1.90;99.90
50606;DHT22;36557;53.572;10.170;2022-12-11T16:09:48;-1.90;99.90
50606;DHT22;36557;53.572;10.170;2022-12-11T16:12:14;-1.90;99.90
50606;DHT22;36557;53.572;10.170;2022-12-11T16:14:41;-2.00;99.90
50606;DHT22;36557;53.572;10.170;2022-12-11T16:17:08;-2.00;99.90
50606;DHT22;36557;53.572;10.170;2022-12-11T16:19:34;-1.90;99.90
50606;DHT22;36557;53.572;10.170;2022-12-11T16:22:01;-1.90;99.90
50606;DHT22;36557;53.572;10.170;2022-12-11T16:24:26;-1.90;99.90
50606;DHT22;36557;53.572;10.170;2022-12-11T16:26:53;-1.90;99.90
50606;DHT22;36557;53.572;10.170;2022-12-11T16:29:18;-1.90;99.90
50606;DHT22;36557;53.572;10.170;2022-12-11T16:31:44;-1.90;99.90
50606;DHT22;36557;53.572;10.170;2022-12-11T16:34:10;-1.90;99.90
50606;DHT22;36557;53.572;10.170;2022-12-11T16:36:36;-1.90;99.90
50606;DHT22;36557;53.572;10.170;2022-12-11T16:39:03;-1.90;99.90
50606;DHT22;36557;53.572;10.170;2022-12-11T16:41:28;-1.90;99.90
50606;DHT22;36557;53.572;10.170;2022-12-11T16:43:54;-1.90;99.90
50606;DHT22;36557;53.572;10.170;2022-12-11T16:46:21;-1.90;99.90
50606;DHT22;36557;53.572;10.170;2022-12-11T16:48:47;-1.90;99.90
50606;DHT22;36557;53.572;10.170;2022-12-11T16:51:13;-1.80;99.90
50606;DHT22;36557;53.572;10.170;2022-12-11T16:53:38;-1.90;99.90
50606;DHT22;36557;53.572;10.170;2022-12-11T16:56:06;-1.90;99.90
50606;DHT22;36557;53.572;10.170;2022-12-11T16:58:31;-1.90;99.90
50606;DHT22;36557;53.572;10.170;2022-12-11T17:00:57;-1.80;99.90
50606;DHT22;36557;53.572;10.170;2022-12-11T17:03:30;-1.80;99.90
50606;DHT22;36557;53.572;10.170;2022-12-11T17:05:56;-1.90;99.90
50606;DHT22;36557;53.572;10.170;2022-12-11T17:08:23;-1.90;99.90
50606;DHT22;36557;53.572;10.170;2022-12-11T17:10:50;-1.90;99.90